sensor_id;sensor_type;location;lat;lon;timestamp;P1;durP1;ratioP1;P2;durP2;ratioP2
36213;SDS011;37652;50.400;30.628;2022-11-15T00:01:17;23.40;;;15.18;;
36213;SDS011;37652;50.400;30.628;2022-11-15T00:03:19;22.67;;;15.32;;
36213;SDS011;37652;50.400;30.628;2022-11-15T00:05:21;18.35;;;13.80;;
36213;SDS011;37652;50.400;30.628;2022-11-15T00:07:22;17.45;;;14.05;;
36213;SDS011;37652;50.400;30.628;2022-11-15T00:09:23;16.33;;;12.98;;
36213;SDS011;37652;50.400;30.628;2022-11-15T00:11:24;17.42;;;11.68;;
36213;SDS011;37652;50.400;30.628;2022-11-15T00:13:25;19.05;;;11.60;;
36213;SDS011;37652;50.400;30.628;2022-11-15T00:15:26;15.93;;;11.32;;
36213;SDS011;37652;50.400;30.628;2022-11-15T00:17:27;17.30;;;9.90;;
36213;SDS011;37652;50.400;30.628;2022-11-15T00:19:28;15.43;;;10.90;;
36213;SDS011;37652;50.400;30.628;2022-11-15T00:21:29;14.57;;;10.40;;
36213;SDS011;37652;50.400;30.628;2022-11-15T00:23:30;14.10;;;10.50;;
36213;SDS011;37652;50.400;30.628;2022-11-15T00:25:31;11.85;;;9.75;;
36213;SDS011;37652;50.400;30.628;2022-11-15T00:27:32;14.90;;;10.43;;
36213;SDS011;37652;50.400;30.628;2022-11-15T00:29:33;19.15;;;11.45;;
36213;SDS011;37652;50.400;30.628;2022-11-15T00:31:34;15.57;;;11.40;;
36213;SDS011;37652;50.400;30.628;2022-11-15T00:33:35;14.15;;;10.77;;
36213;SDS011;37652;50.400;30.628;2022-11-15T00:35:36;15.07;;;11.43;;
36213;SDS011;37652;50.400;30.628;2022-11-15T00:37:37;16.77;;;11.80;;
36213;SDS011;37652;50.400;30.628;2022-11-15T00:39:38;14.20;;;10.88;;
36213;SDS011;37652;50.400;30.628;2022-11-15T00:41:39;15.52;;;11.30;;
36213;SDS011;37652;50.400;30.628;2022-11-15T00:43:40;14.23;;;11.20;;
36213;SDS011;37652;50.400;30.628;2022-11-15T00:45:43;15.05;;;10.55;;
36213;SDS011;37652;50.400;30.628;2022-11-15T00:47:44;11.32;;;9.70;;
36213;SDS011;37652;50.400;30.628;2022-11-15T00:49:46;14.38;;;10.10;;
36213;SDS011;37652;50.400;30.628;2022-11-15T00:51:47;12.65;;;9.65;;
36213;SDS011;37652;50.400;30.628;2022-11-15T00:53:48;13.45;;;9.95;;
36213;SDS011;37652;50.400;30.628;2022-11-15T00:55:49;15.13;;;11.27;;
36213;SDS011;37652;50.400;30.628;2022-11-15T00:57:50;18.52;;;11.88;;
36213;SDS011;37652;50.400;30.628;2022-11-15T00:59:51;16.08;;;11.65;;
36213;SDS011;37652;50.400;30.628;2022-11-15T01:01:52;14.13;;;10.80;;
36213;SDS011;37652;50.400;30.628;2022-11-15T01:03:53;14.80;;;11.40;;
36213;SDS011;37652;50.400;30.628;2022-11-15T01:05:54;12.93;;;11.48;;
36213;SDS011;37652;50.400;30.628;2022-11-15T01:07:59;13.32;;;11.02;;
36213;SDS011;37652;50.400;30.628;2022-11-15T01:10:00;15.43;;;9.73;;
36213;SDS011;37652;50.400;30.628;2022-11-15T01:12:01;15.73;;;10.70;;
36213;SDS011;37652;50.400;30.628;2022-11-15T01:14:02;13.43;;;10.70;;
36213;SDS011;37652;50.400;30.628;2022-11-15T01:16:07;13.52;;;9.73;;
36213;SDS011;37652;50.400;30.628;2022-11-15T01:18:12;12.45;;;9.93;;
36213;SDS011;37652;50.400;30.628;2022-11-15T01:20:13;13.02;;;10.75;;
36213;SDS011;37652;50.400;30.628;2022-11-15T01:22:14;13.55;;;10.02;;
36213;SDS011;37652;50.400;30.628;2022-11-15T01:24:16;14.45;;;10.43;;
36213;SDS011;37652;50.400;30.628;2022-11-15T01:26:17;19.02;;;10.32;;
36213;SDS011;37652;50.400;30.628;2022-11-15T01:28:18;15.50;;;10.95;;
36213;SDS011;37652;50.400;30.628;2022-11-15T01:30:19;15.38;;;11.23;;
36213;SDS011;37652;50.400;30.628;2022-11-15T01:32:20;12.75;;;11.35;;
36213;SDS011;37652;50.400;30.628;2022-11-15T01:34:21;22.45;;;11.88;;
36213;SDS011;37652;50.400;30.628;2022-11-15T01:36:22;17.10;;;12.82;;
36213;SDS011;37652;50.400;30.628;2022-11-15T01:38:23;17.50;;;11.90;;
36213;SDS011;37652;50.400;30.628;2022-11-15T01:40:24;20.40;;;11.32;;
36213;SDS011;37652;50.400;30.628;2022-11-15T01:42:25;17.35;;;11.98;;
36213;SDS011;37652;50.400;30.628;2022-11-15T01:44:46;18.05;;;12.38;;
36213;SDS011;37652;50.400;30.628;2022-11-15T01:46:48;15.95;;;11.05;;
36213;SDS011;37652;50.400;30.628;2022-11-15T01:48:50;19.08;;;12.85;;
36213;SDS011;37652;50.400;30.628;2022-11-15T01:50:53;22.80;;;13.50;;
36213;SDS011;37652;50.400;30.628;2022-11-15T01:52:54;16.08;;;11.80;;
36213;SDS011;37652;50.400;30.628;2022-11-15T01:57:20;15.70;;;11.60;;
36213;SDS011;37652;50.400;30.628;2022-11-15T01:59:21;17.92;;;11.77;;
36213;SDS011;37652;50.400;30.628;2022-11-15T02:01:22;16.27;;;12.43;;
36213;SDS011;37652;50.400;30.628;2022-11-15T02:03:26;13.02;;;10.45;;
36213;SDS011;37652;50.400;30.628;2022-11-15T02:05:38;15.38;;;10.60;;
36213;SDS011;37652;50.400;30.628;2022-11-15T02:07:39;14.45;;;9.75;;
36213;SDS011;37652;50.400;30.628;2022-11-15T02:09:40;13.93;;;9.68;;
36213;SDS011;37652;50.400;30.628;2022-11-15T02:11:41;14.40;;;9.65;;
36213;SDS011;37652;50.400;30.628;2022-11-15T02:13:42;12.65;;;9.60;;
36213;SDS011;37652;50.400;30.628;2022-11-15T02:15:47;13.90;;;10.07;;
36213;SDS011;37652;50.400;30.628;2022-11-15T02:22:40;15.10;;;10.52;;
36213;SDS011;37652;50.400;30.628;2022-11-15T02:29:03;17.17;;;10.98;;
36213;SDS011;37652;50.400;30.628;2022-11-15T02:33:15;16.10;;;10.38;;
36213;SDS011;37652;50.400;30.628;2022-11-15T02:42:13;17.00;;;10.60;;
36213;SDS011;37652;50.400;30.628;2022-11-15T02:44:39;14.18;;;10.40;;
36213;SDS011;37652;50.400;30.628;2022-11-15T02:46:56;13.93;;;11.27;;
36213;SDS011;37652;50.400;30.628;2022-11-15T02:49:14;20.23;;;12.27;;
36213;SDS011;37652;50.400;30.628;2022-11-15T02:51:15;15.13;;;11.40;;
36213;SDS011;37652;50.400;30.628;2022-11-15T02:55:30;13.87;;;10.90;;
36213;SDS011;37652;50.400;30.628;2022-11-15T02:57:49;15.80;;;11.32;;
36213;SDS011;37652;50.400;30.628;2022-11-15T03:00:09;17.52;;;11.48;;
36213;SDS011;37652;50.400;30.628;2022-11-15T03:04:28;19.30;;;11.95;;
36213;SDS011;37652;50.400;30.628;2022-11-15T03:06:49;16.65;;;11.80;;
36213;SDS011;37652;50.400;30.628;2022-11-15T03:13:07;18.42;;;11.90;;
36213;SDS011;37652;50.400;30.628;2022-11-15T03:15:54;16.15;;;10.57;;
36213;SDS011;37652;50.400;30.628;2022-11-15T03:18:00;12.30;;;10.55;;
36213;SDS011;37652;50.400;30.628;2022-11-15T03:20:06;17.15;;;11.90;;
36213;SDS011;37652;50.400;30.628;2022-11-15T03:22:09;18.95;;;12.15;;
36213;SDS011;37652;50.400;30.628;2022-11-15T03:24:11;20.08;;;14.30;;
36213;SDS011;37652;50.400;30.628;2022-11-15T03:26:14;15.05;;;10.90;;
36213;SDS011;37652;50.400;30.628;2022-11-15T03:28:52;14.75;;;11.85;;
36213;SDS011;37652;50.400;30.628;2022-11-15T03:30:57;14.23;;;11.48;;
36213;SDS011;37652;50.400;30.628;2022-11-15T03:33:00;20.02;;;11.93;;
36213;SDS011;37652;50.400;30.628;2022-11-15T03:39:42;16.23;;;10.95;;
36213;SDS011;37652;50.400;30.628;2022-11-15T03:41:46;17.42;;;11.52;;
36213;SDS011;37652;50.400;30.628;2022-11-15T03:43:52;17.50;;;11.20;;
36213;SDS011;37652;50.400;30.628;2022-11-15T03:46:14;16.42;;;10.82;;
36213;SDS011;37652;50.400;30.628;2022-11-15T03:48:21;17.10;;;12.57;;
36213;SDS011;37652;50.400;30.628;2022-11-15T03:50:26;16.25;;;11.85;;
36213;SDS011;37652;50.400;30.628;2022-11-15T03:52:30;18.80;;;12.55;;
36213;SDS011;37652;50.400;30.628;2022-11-15T03:54:33;18.02;;;11.50;;
36213;SDS011;37652;50.400;30.628;2022-11-15T03:56:34;18.00;;;12.23;;
36213;SDS011;37652;50.400;30.628;2022-11-15T03:58:35;17.42;;;11.07;;
36213;SDS011;37652;50.400;30.628;2022-11-15T04:00:36;16.40;;;11.80;;
36213;SDS011;37652;50.400;30.628;2022-11-15T04:02:37;14.40;;;11.20;;
36213;SDS011;37652;50.400;30.628;2022-11-15T04:04:38;13.02;;;10.80;;
36213;SDS011;37652;50.400;30.628;2022-11-15T04:06:39;19.58;;;11.38;;
36213;SDS011;37652;50.400;30.628;2022-11-15T04:08:39;16.95;;;12.50;;
36213;SDS011;37652;50.400;30.628;2022-11-15T04:10:40;16.92;;;13.82;;
36213;SDS011;37652;50.400;30.628;2022-11-15T04:12:43;17.73;;;13.52;;
36213;SDS011;37652;50.400;30.628;2022-11-15T04:14:47;19.80;;;13.93;;
36213;SDS011;37652;50.400;30.628;2022-11-15T04:17:06;20.10;;;14.05;;
36213;SDS011;37652;50.400;30.628;2022-11-15T04:19:07;21.05;;;14.25;;
36213;SDS011;37652;50.400;30.628;2022-11-15T04:21:27;21.13;;;14.52;;
36213;SDS011;37652;50.400;30.628;2022-11-15T04:23:46;22.15;;;14.48;;
36213;SDS011;37652;50.400;30.628;2022-11-15T04:26:16;17.95;;;13.50;;
36213;SDS011;37652;50.400;30.628;2022-11-15T04:28:21;22.63;;;14.73;;
36213;SDS011;37652;50.400;30.628;2022-11-15T04:30:22;20.35;;;14.93;;
36213;SDS011;37652;50.400;30.628;2022-11-15T04:32:23;27.27;;;17.13;;
36213;SDS011;37652;50.400;30.628;2022-11-15T04:34:24;24.80;;;15.82;;
36213;SDS011;37652;50.400;30.628;2022-11-15T04:36:25;30.77;;;17.10;;
36213;SDS011;37652;50.400;30.628;2022-11-15T04:38:44;26.25;;;16.98;;
36213;SDS011;37652;50.400;30.628;2022-11-15T04:40:46;23.50;;;15.73;;
36213;SDS011;37652;50.400;30.628;2022-11-15T04:42:47;25.15;;;15.98;;
36213;SDS011;37652;50.400;30.628;2022-11-15T04:44:48;27.20;;;17.05;;
36213;SDS011;37652;50.400;30.628;2022-11-15T04:46:49;29.83;;;16.98;;
36213;SDS011;37652;50.400;30.628;2022-11-15T04:48:50;27.17;;;16.95;;
36213;SDS011;37652;50.400;30.628;2022-11-15T04:50:51;29.08;;;16.70;;
36213;SDS011;37652;50.400;30.628;2022-11-15T04:52:52;26.83;;;16.58;;
36213;SDS011;37652;50.400;30.628;2022-11-15T04:54:54;24.88;;;15.00;;
36213;SDS011;37652;50.400;30.628;2022-11-15T04:56:55;24.35;;;15.07;;
36213;SDS011;37652;50.400;30.628;2022-11-15T04:58:55;26.58;;;15.60;;
36213;SDS011;37652;50.400;30.628;2022-11-15T05:00:56;29.27;;;16.17;;
36213;SDS011;37652;50.400;30.628;2022-11-15T05:02:57;25.67;;;16.05;;
36213;SDS011;37652;50.400;30.628;2022-11-15T05:05:17;26.25;;;15.73;;
36213;SDS011;37652;50.400;30.628;2022-11-15T05:07:18;30.25;;;18.40;;
36213;SDS011;37652;50.400;30.628;2022-11-15T05:09:19;33.75;;;18.10;;
36213;SDS011;37652;50.400;30.628;2022-11-15T05:11:20;26.33;;;17.73;;
36213;SDS011;37652;50.400;30.628;2022-11-15T05:13:22;28.02;;;16.08;;
36213;SDS011;37652;50.400;30.628;2022-11-15T05:15:22;25.13;;;16.15;;
36213;SDS011;37652;50.400;30.628;2022-11-15T05:17:23;29.98;;;17.60;;
36213;SDS011;37652;50.400;30.628;2022-11-15T05:19:24;27.65;;;17.17;;
36213;SDS011;37652;50.400;30.628;2022-11-15T05:21:25;30.98;;;17.80;;
36213;SDS011;37652;50.400;30.628;2022-11-15T05:23:25;29.90;;;18.05;;
36213;SDS011;37652;50.400;30.628;2022-11-15T05:25:26;32.00;;;18.52;;
36213;SDS011;37652;50.400;30.628;2022-11-15T05:27:27;29.55;;;17.08;;
36213;SDS011;37652;50.400;30.628;2022-11-15T05:29:28;31.58;;;17.77;;
36213;SDS011;37652;50.400;30.628;2022-11-15T05:31:29;31.52;;;18.75;;
36213;SDS011;37652;50.400;30.628;2022-11-15T05:33:31;32.97;;;18.63;;
36213;SDS011;37652;50.400;30.628;2022-11-15T05:35:34;31.23;;;18.63;;
36213;SDS011;37652;50.400;30.628;2022-11-15T05:37:36;30.77;;;17.15;;
36213;SDS011;37652;50.400;30.628;2022-11-15T05:39:37;33.35;;;19.38;;
36213;SDS011;37652;50.400;30.628;2022-11-15T05:41:39;30.13;;;18.38;;
36213;SDS011;37652;50.400;30.628;2022-11-15T05:43:48;32.13;;;18.58;;
36213;SDS011;37652;50.400;30.628;2022-11-15T05:45:49;34.80;;;18.52;;
36213;SDS011;37652;50.400;30.628;2022-11-15T05:47:51;30.33;;;17.20;;
36213;SDS011;37652;50.400;30.628;2022-11-15T05:49:53;34.65;;;18.38;;
36213;SDS011;37652;50.400;30.628;2022-11-15T05:51:54;34.67;;;19.35;;
36213;SDS011;37652;50.400;30.628;2022-11-15T05:53:56;38.17;;;19.13;;
36213;SDS011;37652;50.400;30.628;2022-11-15T05:55:58;37.95;;;17.80;;
36213;SDS011;37652;50.400;30.628;2022-11-15T05:58:00;32.47;;;18.63;;
36213;SDS011;37652;50.400;30.628;2022-11-15T06:00:01;36.33;;;18.40;;
36213;SDS011;37652;50.400;30.628;2022-11-15T06:02:02;35.40;;;18.33;;
36213;SDS011;37652;50.400;30.628;2022-11-15T06:04:03;35.35;;;19.85;;
36213;SDS011;37652;50.400;30.628;2022-11-15T06:06:04;34.42;;;18.23;;
36213;SDS011;37652;50.400;30.628;2022-11-15T06:08:05;34.88;;;21.13;;
36213;SDS011;37652;50.400;30.628;2022-11-15T06:10:06;36.70;;;20.35;;
36213;SDS011;37652;50.400;30.628;2022-11-15T06:12:07;33.22;;;18.30;;
36213;SDS011;37652;50.400;30.628;2022-11-15T06:14:08;35.25;;;20.08;;
36213;SDS011;37652;50.400;30.628;2022-11-15T06:16:09;30.13;;;18.23;;
36213;SDS011;37652;50.400;30.628;2022-11-15T06:18:10;35.10;;;19.17;;
36213;SDS011;37652;50.400;30.628;2022-11-15T06:20:11;35.83;;;19.33;;
36213;SDS011;37652;50.400;30.628;2022-11-15T06:22:12;35.38;;;19.38;;
36213;SDS011;37652;50.400;30.628;2022-11-15T06:24:13;40.92;;;20.65;;
36213;SDS011;37652;50.400;30.628;2022-11-15T06:26:14;38.47;;;20.98;;
36213;SDS011;37652;50.400;30.628;2022-11-15T06:28:15;31.90;;;19.00;;
36213;SDS011;37652;50.400;30.628;2022-11-15T06:30:16;34.40;;;18.27;;
36213;SDS011;37652;50.400;30.628;2022-11-15T06:32:17;33.10;;;18.73;;
36213;SDS011;37652;50.400;30.628;2022-11-15T06:34:18;31.95;;;18.23;;
36213;SDS011;37652;50.400;30.628;2022-11-15T06:36:19;28.35;;;16.88;;
36213;SDS011;37652;50.400;30.628;2022-11-15T06:38:20;28.85;;;16.50;;
36213;SDS011;37652;50.400;30.628;2022-11-15T06:40:21;26.27;;;14.55;;
36213;SDS011;37652;50.400;30.628;2022-11-15T06:42:22;27.23;;;14.93;;
36213;SDS011;37652;50.400;30.628;2022-11-15T06:44:23;26.48;;;15.10;;
36213;SDS011;37652;50.400;30.628;2022-11-15T06:46:24;28.52;;;15.68;;
36213;SDS011;37652;50.400;30.628;2022-11-15T06:48:25;23.70;;;14.70;;
36213;SDS011;37652;50.400;30.628;2022-11-15T06:50:26;30.05;;;15.48;;
36213;SDS011;37652;50.400;30.628;2022-11-15T06:52:27;23.05;;;14.23;;
36213;SDS011;37652;50.400;30.628;2022-11-15T06:54:32;26.65;;;15.30;;
36213;SDS011;37652;50.400;30.628;2022-11-15T06:56:33;23.85;;;13.82;;
36213;SDS011;37652;50.400;30.628;2022-11-15T06:58:34;25.23;;;13.75;;
36213;SDS011;37652;50.400;30.628;2022-11-15T10:31:31;38.58;;;22.38;;
36213;SDS011;37652;50.400;30.628;2022-11-15T10:33:33;37.53;;;23.58;;
36213;SDS011;37652;50.400;30.628;2022-11-15T10:35:34;41.00;;;23.55;;
36213;SDS011;37652;50.400;30.628;2022-11-15T10:37:35;41.90;;;24.35;;
36213;SDS011;37652;50.400;30.628;2022-11-15T10:39:36;42.58;;;25.10;;
36213;SDS011;37652;50.400;30.628;2022-11-15T10:41:38;34.75;;;22.33;;
36213;SDS011;37652;50.400;30.628;2022-11-15T10:43:40;38.40;;;22.83;;
36213;SDS011;37652;50.400;30.628;2022-11-15T10:45:41;36.25;;;21.83;;
36213;SDS011;37652;50.400;30.628;2022-11-15T10:47:42;36.10;;;21.67;;
36213;SDS011;37652;50.400;30.628;2022-11-15T10:49:52;33.70;;;21.67;;
36213;SDS011;37652;50.400;30.628;2022-11-15T10:51:59;29.95;;;20.88;;
36213;SDS011;37652;50.400;30.628;2022-11-15T10:54:02;30.75;;;20.60;;
36213;SDS011;37652;50.400;30.628;2022-11-15T10:56:04;35.25;;;21.80;;
36213;SDS011;37652;50.400;30.628;2022-11-15T11:00:32;34.25;;;20.45;;
36213;SDS011;37652;50.400;30.628;2022-11-15T11:02:39;34.22;;;20.88;;
36213;SDS011;37652;50.400;30.628;2022-11-15T11:04:51;32.50;;;21.15;;
36213;SDS011;37652;50.400;30.628;2022-11-15T11:06:56;32.78;;;20.08;;
36213;SDS011;37652;50.400;30.628;2022-11-15T11:09:03;34.88;;;20.77;;
36213;SDS011;37652;50.400;30.628;2022-11-15T11:11:05;32.03;;;20.33;;
36213;SDS011;37652;50.400;30.628;2022-11-15T11:13:13;34.20;;;21.50;;
36213;SDS011;37652;50.400;30.628;2022-11-15T11:15:15;33.78;;;21.10;;
36213;SDS011;37652;50.400;30.628;2022-11-15T11:23:44;35.47;;;21.63;;
36213;SDS011;37652;50.400;30.628;2022-11-15T11:36:51;30.70;;;20.33;;
36213;SDS011;37652;50.400;30.628;2022-11-15T11:43:45;32.92;;;20.73;;
36213;SDS011;37652;50.400;30.628;2022-11-15T11:49:09;31.45;;;20.83;;
36213;SDS011;37652;50.400;30.628;2022-11-15T11:50:39;32.72;;;20.25;;
36213;SDS011;37652;50.400;30.628;2022-11-15T11:53:28;30.83;;;19.95;;
36213;SDS011;37652;50.400;30.628;2022-11-15T11:57:22;27.08;;;19.00;;
36213;SDS011;37652;50.400;30.628;2022-11-15T12:01:30;31.92;;;21.70;;
36213;SDS011;37652;50.400;30.628;2022-11-15T12:05:50;28.60;;;21.35;;
36213;SDS011;37652;50.400;30.628;2022-11-15T13:08:11;30.70;;;21.13;;
36213;SDS011;37652;50.400;30.628;2022-11-15T13:10:32;30.48;;;21.45;;
36213;SDS011;37652;50.400;30.628;2022-11-15T13:14:51;29.15;;;21.40;;
36213;SDS011;37652;50.400;30.628;2022-11-15T13:16:59;28.75;;;19.83;;
36213;SDS011;37652;50.400;30.628;2022-11-15T13:19:00;33.20;;;21.92;;
36213;SDS011;37652;50.400;30.628;2022-11-15T13:21:03;30.38;;;20.73;;
36213;SDS011;37652;50.400;30.628;2022-11-15T13:23:24;32.10;;;20.23;;
36213;SDS011;37652;50.400;30.628;2022-11-15T13:27:46;29.58;;;20.60;;
36213;SDS011;37652;50.400;30.628;2022-11-15T13:29:48;31.55;;;20.92;;
36213;SDS011;37652;50.400;30.628;2022-11-15T13:31:49;30.33;;;21.15;;
36213;SDS011;37652;50.400;30.628;2022-11-15T13:33:51;30.83;;;21.40;;
36213;SDS011;37652;50.400;30.628;2022-11-15T13:35:54;30.45;;;20.75;;
36213;SDS011;37652;50.400;30.628;2022-11-15T13:37:55;33.25;;;22.95;;
36213;SDS011;37652;50.400;30.628;2022-11-15T13:40:10;26.35;;;20.38;;
36213;SDS011;37652;50.400;30.628;2022-11-15T13:42:15;33.78;;;22.27;;
36213;SDS011;37652;50.400;30.628;2022-11-15T13:44:20;33.22;;;21.25;;
36213;SDS011;37652;50.400;30.628;2022-11-15T13:46:29;29.88;;;21.48;;
36213;SDS011;37652;50.400;30.628;2022-11-15T13:48:31;27.92;;;19.98;;
36213;SDS011;37652;50.400;30.628;2022-11-15T13:50:33;29.98;;;21.55;;
36213;SDS011;37652;50.400;30.628;2022-11-15T13:52:36;27.58;;;20.85;;
36213;SDS011;37652;50.400;30.628;2022-11-15T13:57:03;31.40;;;21.50;;
36213;SDS011;37652;50.400;30.628;2022-11-15T13:59:14;33.00;;;22.17;;
36213;SDS011;37652;50.400;30.628;2022-11-15T14:01:17;37.53;;;22.77;;
36213;SDS011;37652;50.400;30.628;2022-11-15T14:03:21;32.75;;;23.27;;
36213;SDS011;37652;50.400;30.628;2022-11-15T14:05:25;26.70;;;20.35;;
36213;SDS011;37652;50.400;30.628;2022-11-15T14:07:27;27.55;;;20.88;;
36213;SDS011;37652;50.400;30.628;2022-11-15T14:09:30;30.77;;;20.60;;
36213;SDS011;37652;50.400;30.628;2022-11-15T14:11:32;27.38;;;20.40;;
36213;SDS011;37652;50.400;30.628;2022-11-15T14:13:33;27.27;;;18.63;;
36213;SDS011;37652;50.400;30.628;2022-11-15T14:17:37;28.27;;;19.55;;
36213;SDS011;37652;50.400;30.628;2022-11-15T14:19:40;30.67;;;20.77;;
36213;SDS011;37652;50.400;30.628;2022-11-15T14:30:28;33.63;;;20.70;;
36213;SDS011;37652;50.400;30.628;2022-11-15T14:32:30;28.35;;;21.17;;
36213;SDS011;37652;50.400;30.628;2022-11-15T14:34:37;27.40;;;20.67;;
36213;SDS011;37652;50.400;30.628;2022-11-15T14:36:38;29.48;;;21.38;;
36213;SDS011;37652;50.400;30.628;2022-11-15T14:38:39;31.20;;;21.75;;
36213;SDS011;37652;50.400;30.628;2022-11-15T14:40:42;33.28;;;23.30;;
36213;SDS011;37652;50.400;30.628;2022-11-15T14:42:44;33.95;;;24.65;;
36213;SDS011;37652;50.400;30.628;2022-11-15T14:44:46;35.53;;;25.23;;
36213;SDS011;37652;50.400;30.628;2022-11-15T14:46:47;39.53;;;27.50;;
36213;SDS011;37652;50.400;30.628;2022-11-15T14:48:48;42.00;;;26.60;;
36213;SDS011;37652;50.400;30.628;2022-11-15T14:50:50;39.10;;;26.02;;
36213;SDS011;37652;50.400;30.628;2022-11-15T14:52:51;41.47;;;27.48;;
36213;SDS011;37652;50.400;30.628;2022-11-15T14:54:51;37.38;;;26.45;;
36213;SDS011;37652;50.400;30.628;2022-11-15T14:56:52;36.72;;;25.63;;
36213;SDS011;37652;50.400;30.628;2022-11-15T14:58:53;34.65;;;23.27;;
36213;SDS011;37652;50.400;30.628;2022-11-15T15:00:55;45.55;;;27.98;;
36213;SDS011;37652;50.400;30.628;2022-11-15T15:02:56;42.90;;;28.92;;
36213;SDS011;37652;50.400;30.628;2022-11-15T15:04:57;36.03;;;25.85;;
36213;SDS011;37652;50.400;30.628;2022-11-15T15:07:01;37.47;;;24.77;;
36213;SDS011;37652;50.400;30.628;2022-11-15T15:09:02;33.72;;;24.58;;
36213;SDS011;37652;50.400;30.628;2022-11-15T15:11:04;34.95;;;23.60;;
36213;SDS011;37652;50.400;30.628;2022-11-15T15:13:21;33.97;;;23.55;;
36213;SDS011;37652;50.400;30.628;2022-11-15T15:15:25;32.53;;;24.35;;
36213;SDS011;37652;50.400;30.628;2022-11-15T15:17:26;33.00;;;22.95;;
36213;SDS011;37652;50.400;30.628;2022-11-15T15:19:27;33.20;;;24.20;;
36213;SDS011;37652;50.400;30.628;2022-11-15T15:21:28;36.67;;;24.77;;
36213;SDS011;37652;50.400;30.628;2022-11-15T15:23:31;35.92;;;23.38;;
36213;SDS011;37652;50.400;30.628;2022-11-15T15:25:33;37.08;;;24.15;;
36213;SDS011;37652;50.400;30.628;2022-11-15T15:27:34;32.58;;;22.48;;
36213;SDS011;37652;50.400;30.628;2022-11-15T15:29:35;41.53;;;24.80;;
36213;SDS011;37652;50.400;30.628;2022-11-15T15:31:36;35.95;;;25.48;;
36213;SDS011;37652;50.400;30.628;2022-11-15T15:33:37;36.20;;;24.67;;
36213;SDS011;37652;50.400;30.628;2022-11-15T15:35:38;33.72;;;23.45;;
36213;SDS011;37652;50.400;30.628;2022-11-15T15:37:40;39.53;;;24.98;;
36213;SDS011;37652;50.400;30.628;2022-11-15T15:39:41;34.60;;;24.27;;
36213;SDS011;37652;50.400;30.628;2022-11-15T15:41:42;34.72;;;24.23;;
36213;SDS011;37652;50.400;30.628;2022-11-15T15:43:44;34.90;;;24.40;;
36213;SDS011;37652;50.400;30.628;2022-11-15T15:47:46;38.93;;;23.80;;
36213;SDS011;37652;50.400;30.628;2022-11-15T15:49:47;34.78;;;23.80;;
36213;SDS011;37652;50.400;30.628;2022-11-15T15:51:48;36.50;;;22.98;;
36213;SDS011;37652;50.400;30.628;2022-11-15T15:53:49;37.28;;;25.20;;
36213;SDS011;37652;50.400;30.628;2022-11-15T15:55:52;34.92;;;22.33;;
36213;SDS011;37652;50.400;30.628;2022-11-15T15:57:53;37.20;;;24.33;;
36213;SDS011;37652;50.400;30.628;2022-11-15T15:59:54;34.60;;;24.45;;
36213;SDS011;37652;50.400;30.628;2022-11-15T16:01:56;38.70;;;24.58;;
36213;SDS011;37652;50.400;30.628;2022-11-15T16:03:57;37.05;;;24.25;;
36213;SDS011;37652;50.400;30.628;2022-11-15T16:05:58;35.03;;;22.95;;
36213;SDS011;37652;50.400;30.628;2022-11-15T16:07:59;36.22;;;24.15;;
36213;SDS011;37652;50.400;30.628;2022-11-15T16:10:00;35.13;;;24.00;;
36213;SDS011;37652;50.400;30.628;2022-11-15T16:12:01;37.08;;;23.88;;
36213;SDS011;37652;50.400;30.628;2022-11-15T16:14:02;38.03;;;23.73;;
36213;SDS011;37652;50.400;30.628;2022-11-15T16:16:04;34.80;;;23.48;;
36213;SDS011;37652;50.400;30.628;2022-11-15T16:18:05;35.78;;;23.92;;
36213;SDS011;37652;50.400;30.628;2022-11-15T16:20:21;35.35;;;23.83;;
36213;SDS011;37652;50.400;30.628;2022-11-15T16:22:23;33.40;;;24.00;;
36213;SDS011;37652;50.400;30.628;2022-11-15T16:24:24;35.70;;;23.75;;
36213;SDS011;37652;50.400;30.628;2022-11-15T16:26:27;37.92;;;23.92;;
36213;SDS011;37652;50.400;30.628;2022-11-15T16:28:29;33.63;;;23.15;;
36213;SDS011;37652;50.400;30.628;2022-11-15T16:30:31;34.00;;;24.00;;
36213;SDS011;37652;50.400;30.628;2022-11-15T16:32:33;32.05;;;23.08;;
36213;SDS011;37652;50.400;30.628;2022-11-15T16:34:34;32.88;;;23.27;;
36213;SDS011;37652;50.400;30.628;2022-11-15T16:36:35;35.33;;;24.52;;
36213;SDS011;37652;50.400;30.628;2022-11-15T16:38:36;32.47;;;23.00;;
36213;SDS011;37652;50.400;30.628;2022-11-15T16:40:39;34.85;;;24.13;;
36213;SDS011;37652;50.400;30.628;2022-11-15T16:42:39;36.78;;;25.67;;
36213;SDS011;37652;50.400;30.628;2022-11-15T16:44:41;34.50;;;24.25;;
36213;SDS011;37652;50.400;30.628;2022-11-15T16:46:42;34.13;;;25.02;;
36213;SDS011;37652;50.400;30.628;2022-11-15T16:48:48;34.47;;;23.42;;
36213;SDS011;37652;50.400;30.628;2022-11-15T16:50:49;35.50;;;23.40;;
36213;SDS011;37652;50.400;30.628;2022-11-15T16:52:51;37.55;;;24.90;;
36213;SDS011;37652;50.400;30.628;2022-11-15T16:54:56;37.28;;;24.92;;
36213;SDS011;37652;50.400;30.628;2022-11-15T16:56:57;40.00;;;26.38;;
36213;SDS011;37652;50.400;30.628;2022-11-15T16:58:59;33.83;;;23.88;;
36213;SDS011;37652;50.400;30.628;2022-11-15T17:01:00;38.67;;;24.73;;
36213;SDS011;37652;50.400;30.628;2022-11-15T17:03:01;39.08;;;26.23;;
36213;SDS011;37652;50.400;30.628;2022-11-15T17:05:02;36.55;;;25.88;;
36213;SDS011;37652;50.400;30.628;2022-11-15T17:07:04;39.97;;;26.02;;
36213;SDS011;37652;50.400;30.628;2022-11-15T17:09:06;38.72;;;25.88;;
36213;SDS011;37652;50.400;30.628;2022-11-15T17:13:10;40.73;;;26.80;;
36213;SDS011;37652;50.400;30.628;2022-11-15T17:15:12;49.35;;;27.75;;
36213;SDS011;37652;50.400;30.628;2022-11-15T17:19:18;40.03;;;27.93;;
36213;SDS011;37652;50.400;30.628;2022-11-15T17:21:20;45.53;;;27.42;;
36213;SDS011;37652;50.400;30.628;2022-11-15T17:23:21;42.95;;;27.88;;
36213;SDS011;37652;50.400;30.628;2022-11-15T17:25:22;40.20;;;27.58;;
36213;SDS011;37652;50.400;30.628;2022-11-15T17:27:23;40.58;;;27.85;;
36213;SDS011;37652;50.400;30.628;2022-11-15T17:29:24;39.15;;;26.88;;
36213;SDS011;37652;50.400;30.628;2022-11-15T17:31:25;38.53;;;27.10;;
36213;SDS011;37652;50.400;30.628;2022-11-15T17:33:26;38.17;;;27.77;;
36213;SDS011;37652;50.400;30.628;2022-11-15T17:35:27;41.20;;;29.45;;
36213;SDS011;37652;50.400;30.628;2022-11-15T17:37:28;44.33;;;28.85;;
36213;SDS011;37652;50.400;30.628;2022-11-15T17:39:29;39.00;;;27.33;;
36213;SDS011;37652;50.400;30.628;2022-11-15T17:41:31;39.67;;;27.60;;
36213;SDS011;37652;50.400;30.628;2022-11-15T17:43:32;44.00;;;28.92;;
36213;SDS011;37652;50.400;30.628;2022-11-15T17:45:33;43.97;;;28.30;;
36213;SDS011;37652;50.400;30.628;2022-11-15T21:28:09;33.13;;;24.67;;
36213;SDS011;37652;50.400;30.628;2022-11-15T21:30:10;36.45;;;24.75;;
36213;SDS011;37652;50.400;30.628;2022-11-15T21:32:11;34.55;;;23.60;;
36213;SDS011;37652;50.400;30.628;2022-11-15T21:34:12;35.65;;;24.45;;